createdAt,value
2018-09-11T00:00:49.082Z,3.00
2018-09-11T00:02:51.125Z,2.93
2018-09-11T00:04:53.194Z,3.40
2018-09-11T00:06:55.218Z,3.83
2018-09-11T00:08:57.277Z,3.60
2018-09-11T00:10:59.337Z,3.00
2018-09-11T00:13:01.402Z,3.60
2018-09-11T00:15:03.493Z,3.30
2018-09-11T00:17:05.576Z,4.20
2018-09-11T00:19:07.636Z,3.90
2018-09-11T00:21:09.691Z,4.00
2018-09-11T00:23:11.739Z,3.80
2018-09-11T00:25:13.770Z,4.00
2018-09-11T00:27:16.153Z,3.83
2018-09-11T00:29:18.201Z,3.60
2018-09-11T00:31:20.398Z,4.00
2018-09-11T00:33:22.418Z,4.23
2018-09-11T00:35:24.465Z,3.23
2018-09-11T00:37:26.508Z,4.03
2018-09-11T00:39:28.612Z,3.90
2018-09-11T00:41:30.689Z,4.03
2018-09-11T00:43:32.761Z,3.27
2018-09-11T00:45:34.803Z,3.40
2018-09-11T00:47:36.955Z,4.17
2018-09-11T00:49:39.144Z,3.90
2018-09-11T00:51:41.248Z,3.67
2018-09-11T00:53:43.299Z,3.93
2018-09-11T00:55:45.465Z,3.80
2018-09-11T00:57:47.510Z,3.47
2018-09-11T00:59:49.654Z,4.00
2018-09-11T01:01:51.728Z,4.30
2018-09-11T01:03:53.813Z,3.50
2018-09-11T01:05:55.901Z,3.80
2018-09-11T01:07:57.997Z,3.90
2018-09-11T01:10:00.203Z,4.17
2018-09-11T01:12:02.293Z,5.00
2018-09-11T01:14:04.326Z,4.60
2018-09-11T01:16:07.603Z,5.50
2018-09-11T01:18:09.668Z,6.20
2018-09-11T01:20:11.710Z,6.80
2018-09-11T01:22:13.750Z,6.63
2018-09-11T01:24:15.860Z,6.57
2018-09-11T01:26:17.897Z,7.17
2018-09-11T01:28:19.929Z,6.80
2018-09-11T01:30:22.628Z,6.40
2018-09-11T01:32:24.824Z,6.20
2018-09-11T01:34:26.932Z,6.80
2018-09-11T01:36:29.023Z,7.40
2018-09-11T01:38:31.089Z,6.40
2018-09-11T01:40:33.117Z,6.30
2018-09-11T01:42:35.192Z,6.70
2018-09-11T01:44:37.261Z,6.93
2018-09-11T01:46:39.300Z,6.50
2018-09-11T01:48:41.320Z,6.43
2018-09-11T01:50:43.399Z,7.33
2018-09-11T01:52:45.483Z,7.40
2018-09-11T01:54:47.536Z,6.80
2018-09-11T01:56:49.601Z,7.20
2018-09-11T01:58:51.674Z,7.73
2018-09-11T02:00:53.746Z,8.87
2018-09-11T02:02:55.785Z,7.93
2018-09-11T02:07:35.422Z,7.40
2018-09-11T02:09:37.523Z,8.40
2018-09-11T02:11:39.579Z,8.13
2018-09-11T02:13:41.608Z,8.00
2018-09-11T02:15:43.665Z,8.37
2018-09-11T02:17:45.750Z,7.87
2018-09-11T02:19:47.789Z,8.17
2018-09-11T02:21:50.121Z,8.03
2018-09-11T02:23:52.149Z,8.77
2018-09-11T02:25:54.181Z,8.83
2018-09-11T02:27:56.697Z,9.83
2018-09-11T02:29:58.749Z,10.20
2018-09-11T02:32:00.808Z,8.80
2018-09-11T02:34:02.854Z,9.30
2018-09-11T02:36:05.178Z,10.67
2018-09-11T02:38:07.259Z,10.00
2018-09-11T02:40:09.293Z,10.00
2018-09-11T02:42:11.326Z,9.33
2018-09-11T02:44:13.373Z,9.10
2018-09-11T02:46:15.423Z,8.27
2018-09-11T02:48:17.473Z,7.57
2018-09-11T02:50:19.541Z,8.57
2018-09-11T02:52:21.641Z,7.10
2018-09-11T02:54:23.735Z,7.63
2018-09-11T02:56:26.089Z,7.97
2018-09-11T02:58:28.128Z,7.33
2018-09-11T03:00:30.217Z,6.80
2018-09-11T03:02:32.288Z,6.80
2018-09-11T03:04:34.357Z,8.10
2018-09-11T03:06:36.440Z,6.80
2018-09-11T03:08:38.520Z,6.70
2018-09-11T03:10:40.613Z,7.43
2018-09-11T03:12:42.708Z,7.70
2018-09-11T03:14:44.750Z,7.77
2018-09-11T03:16:46.804Z,6.17
2018-09-11T03:18:48.858Z,6.10
2018-09-11T03:20:50.921Z,6.57
2018-09-11T03:22:53.009Z,5.77
2018-09-11T03:24:55.054Z,6.20
2018-09-11T03:26:57.087Z,6.23
2018-09-11T03:28:59.134Z,6.30
2018-09-11T03:31:01.193Z,5.50
2018-09-11T03:33:03.264Z,6.03
2018-09-11T03:35:05.353Z,5.83
2018-09-11T03:37:07.469Z,5.83
2018-09-11T03:39:10.107Z,5.97
2018-09-11T03:41:12.146Z,5.93
2018-09-11T03:43:14.370Z,5.83
2018-09-11T03:45:16.461Z,5.30
2018-09-11T03:47:18.517Z,5.30
2018-09-11T03:49:20.553Z,5.80
2018-09-11T03:51:22.621Z,5.70
2018-09-11T03:53:24.696Z,4.90
2018-09-11T03:55:26.832Z,5.20
2018-09-11T03:57:28.993Z,5.97
2018-09-11T03:59:31.118Z,4.83
2018-09-11T04:01:33.162Z,6.13
2018-09-11T04:03:35.322Z,6.20
2018-09-11T04:05:37.409Z,5.10
2018-09-11T04:07:39.797Z,6.07
2018-09-11T04:09:41.854Z,6.00
2018-09-11T04:11:43.905Z,5.53
2018-09-11T04:13:45.948Z,6.43
2018-09-11T04:15:48.017Z,5.43
2018-09-11T04:17:50.074Z,6.47
2018-09-11T04:19:52.128Z,6.50
2018-09-11T04:21:54.186Z,6.10
2018-09-11T04:23:56.264Z,6.60
2018-09-11T04:25:58.312Z,6.97
2018-09-11T04:28:00.370Z,7.63
2018-09-11T04:30:02.430Z,7.33
2018-09-11T04:32:04.449Z,7.60
2018-09-11T04:34:06.520Z,9.43
2018-09-11T04:36:08.564Z,9.63
2018-09-11T04:38:10.654Z,9.40
2018-09-11T04:40:12.712Z,9.53
2018-09-11T04:42:14.777Z,10.63
2018-09-11T04:44:16.824Z,10.00
2018-09-11T04:46:18.877Z,10.63
2018-09-11T04:48:20.908Z,10.40
2018-09-11T04:50:22.964Z,9.73
2018-09-11T04:52:25.032Z,9.90
2018-09-11T04:54:27.145Z,10.40
2018-09-11T04:56:29.185Z,10.73
2018-09-11T04:58:31.259Z,11.40
2018-09-11T05:00:33.293Z,11.77
2018-09-11T05:02:35.365Z,12.83
2018-09-11T05:04:37.977Z,12.60
2018-09-11T05:06:40.451Z,12.87
2018-09-11T05:08:42.684Z,12.40
2018-09-11T05:10:44.906Z,12.77
2018-09-11T05:12:47.024Z,14.50
2018-09-11T05:14:49.208Z,14.50
2018-09-11T05:16:51.353Z,11.80
2018-09-11T05:18:53.440Z,13.73
2018-09-11T05:20:55.543Z,12.47
2018-09-11T05:22:57.620Z,12.80
2018-09-11T05:25:00.748Z,13.50
2018-09-11T05:27:03.185Z,12.47
2018-09-11T05:29:05.277Z,14.17
2018-09-11T05:31:07.328Z,12.10
2018-09-11T05:33:09.552Z,11.70
2018-09-11T05:35:11.593Z,13.27
2018-09-11T05:37:13.704Z,12.40
2018-09-11T05:39:15.777Z,11.87
2018-09-11T05:41:17.926Z,11.10
2018-09-11T05:43:20.061Z,11.70
2018-09-11T05:45:22.211Z,10.90
2018-09-11T05:47:24.259Z,11.70
2018-09-11T05:49:26.332Z,11.43
2018-09-11T05:51:28.391Z,11.10
2018-09-11T05:53:30.504Z,10.97
2018-09-11T05:55:32.573Z,10.47
2018-09-11T05:57:34.575Z,10.17
2018-09-11T05:59:36.626Z,9.40
2018-09-11T06:01:38.746Z,9.37
2018-09-11T06:03:41.630Z,10.03
2018-09-11T06:21:40.869Z,7.93
2018-09-11T06:23:43.011Z,8.67
2018-09-11T06:25:45.194Z,7.50
2018-09-11T06:27:47.305Z,8.33
2018-09-11T06:29:49.429Z,7.37
2018-09-11T06:31:51.547Z,7.30
2018-09-11T06:33:53.648Z,7.53
2018-09-11T06:35:55.806Z,6.00
2018-09-11T06:37:58.237Z,6.40
2018-09-11T06:40:00.366Z,5.70
2018-09-11T06:42:02.490Z,5.37
2018-09-11T06:44:04.594Z,5.83
2018-09-11T06:46:06.735Z,5.00
2018-09-11T06:48:08.829Z,4.60
2018-09-11T06:50:10.913Z,4.27
2018-09-11T06:52:13.064Z,4.30
2018-09-11T06:54:15.273Z,4.37
2018-09-11T06:56:17.381Z,4.50
2018-09-11T06:58:19.451Z,4.30
2018-09-11T07:00:21.596Z,3.90
2018-09-11T07:02:23.718Z,4.63
2018-09-11T07:04:25.888Z,4.50
2018-09-11T07:06:28.082Z,4.53
2018-09-11T07:08:30.157Z,4.73
2018-09-11T07:10:32.277Z,4.13
2018-09-11T07:12:34.374Z,4.00
2018-09-11T07:14:36.485Z,4.00
2018-09-11T07:16:38.579Z,3.70
2018-09-11T07:18:40.702Z,4.03
2018-09-11T07:20:43.277Z,4.20
2018-09-11T07:22:45.522Z,4.50
2018-09-11T07:24:47.802Z,3.93
2018-09-11T07:26:49.915Z,4.80
2018-09-11T07:28:52.028Z,4.53
2018-09-11T07:30:54.205Z,4.27
2018-09-11T07:32:56.380Z,4.90
2018-09-11T07:34:58.536Z,4.43
2018-09-11T07:37:00.643Z,4.63
2018-09-11T07:39:02.914Z,4.67
2018-09-11T07:41:05.161Z,4.23
2018-09-11T07:43:07.253Z,4.80
2018-09-11T07:45:09.358Z,4.57
2018-09-11T07:47:11.452Z,4.77
2018-09-11T07:49:13.589Z,4.97
2018-09-11T07:51:15.835Z,4.60
2018-09-11T07:53:17.923Z,5.43
2018-09-11T07:55:20.186Z,5.00
2018-09-11T07:57:22.367Z,4.80
2018-09-11T07:59:24.495Z,4.63
2018-09-11T08:01:26.635Z,4.90
2018-09-11T08:03:28.791Z,4.20
2018-09-11T08:05:30.895Z,5.33
2018-09-11T08:07:33.032Z,5.43
2018-09-11T08:09:35.092Z,4.10
2018-09-11T08:11:37.182Z,4.80
2018-09-11T08:13:39.226Z,4.40
2018-09-11T08:15:41.256Z,4.73
2018-09-11T08:17:43.304Z,4.40
2018-09-11T08:19:45.421Z,5.10
2018-09-11T08:21:47.422Z,4.63
2018-09-11T08:23:49.462Z,4.43
2018-09-11T08:25:53.644Z,4.57
2018-09-11T08:27:55.701Z,4.87
2018-09-11T08:29:57.769Z,4.57
2018-09-11T08:31:59.803Z,4.60
2018-09-11T08:34:01.875Z,5.43
2018-09-11T08:36:03.936Z,5.17
2018-09-11T08:38:05.985Z,4.33
2018-09-11T08:40:08.047Z,4.63
2018-09-11T08:42:10.853Z,4.20
2018-09-11T08:44:12.889Z,4.63
2018-09-11T08:46:14.934Z,4.80
2018-09-11T08:48:16.965Z,4.80
2018-09-11T08:50:19.011Z,4.67
2018-09-11T08:52:21.088Z,4.80
2018-09-11T08:54:23.069Z,4.87
2018-09-11T08:56:25.113Z,4.73
2018-09-11T08:58:27.228Z,5.00
2018-09-11T09:00:29.181Z,4.87
2018-09-11T09:02:31.245Z,5.13
2018-09-11T09:04:33.300Z,5.20
2018-09-11T09:06:35.373Z,5.83
2018-09-11T09:08:37.445Z,4.43
2018-09-11T09:10:39.477Z,4.47
2018-09-11T09:12:41.537Z,4.90
2018-09-11T09:14:43.672Z,5.13
2018-09-11T09:16:45.761Z,4.07
2018-09-11T09:18:47.979Z,4.53
2018-09-11T09:20:50.083Z,4.60
2018-09-11T09:22:52.175Z,5.07
2018-09-11T09:24:54.256Z,4.47
2018-09-11T09:26:56.295Z,4.57
2018-09-11T09:28:58.333Z,3.90
2018-09-11T09:31:00.393Z,4.40
2018-09-11T09:33:02.455Z,4.47
2018-09-11T09:35:07.774Z,4.40
2018-09-11T09:37:10.265Z,4.63
2018-09-11T09:39:12.305Z,4.37
2018-09-11T09:41:14.486Z,4.87
2018-09-11T09:43:16.603Z,4.43
2018-09-11T09:45:18.685Z,3.87
2018-09-11T09:47:20.792Z,3.77
2018-09-11T09:49:22.852Z,4.20
2018-09-11T09:51:24.880Z,4.80
2018-09-11T09:53:26.913Z,4.07
2018-09-11T09:55:28.948Z,4.00
2018-09-11T09:57:31.010Z,4.20
2018-09-11T09:59:33.112Z,4.67
2018-09-11T10:01:40.954Z,3.57
2018-09-11T10:03:43.030Z,4.67
2018-09-11T14:21:39.090Z,3.13
2018-09-11T14:23:41.127Z,2.87
2018-09-11T14:25:43.171Z,2.63
2018-09-11T14:27:45.226Z,2.60
2018-09-11T14:29:47.302Z,2.80
2018-09-11T14:31:49.352Z,2.80
2018-09-11T14:33:51.394Z,2.50
2018-09-11T14:35:53.446Z,2.43
2018-09-11T14:37:55.476Z,2.87
2018-09-11T14:39:57.516Z,3.30
2018-09-11T14:41:59.621Z,2.60
2018-09-11T14:44:01.667Z,2.63
2018-09-11T14:46:03.790Z,2.30
2018-09-11T14:48:05.846Z,2.73
2018-09-11T14:50:07.885Z,2.80
2018-09-11T14:52:09.955Z,2.40
2018-09-11T14:54:11.993Z,2.27
2018-09-11T14:56:14.042Z,2.80
2018-09-11T14:58:16.065Z,2.53
2018-09-11T15:00:18.197Z,2.43
2018-09-11T15:02:20.170Z,2.33
2018-09-11T15:04:22.256Z,2.40
2018-09-11T15:06:24.305Z,2.80
2018-09-11T15:08:26.344Z,2.47
2018-09-11T15:10:28.424Z,3.10
2018-09-11T15:12:30.461Z,2.67
2018-09-11T15:14:32.513Z,2.33
2018-09-11T15:16:34.681Z,2.67
2018-09-11T15:18:36.743Z,2.90
2018-09-11T15:20:38.831Z,2.50
2018-09-11T15:22:40.954Z,2.80
2018-09-11T15:24:42.969Z,3.00
2018-09-11T15:26:45.012Z,2.90
2018-09-11T15:28:47.029Z,3.03
2018-09-11T15:30:49.374Z,2.77
2018-09-11T15:32:51.445Z,2.40
2018-09-11T15:34:53.496Z,3.10
2018-09-11T15:36:55.560Z,2.50
2018-09-11T15:38:57.643Z,2.50
2018-09-11T15:40:59.697Z,2.27
2018-09-11T15:43:01.978Z,2.77
2018-09-11T15:45:04.075Z,2.90
2018-09-11T15:47:06.190Z,2.70
2018-09-11T15:49:08.176Z,2.73
2018-09-11T15:51:10.252Z,2.40
2018-09-11T15:53:12.301Z,3.17
2018-09-11T15:55:14.350Z,2.83
2018-09-11T15:57:16.413Z,2.40
2018-09-11T15:59:18.502Z,3.63
2018-09-11T16:01:20.572Z,2.50
2018-09-11T16:03:22.626Z,2.27
2018-09-11T16:05:24.727Z,3.10
2018-09-11T16:07:26.794Z,2.93
2018-09-11T16:09:28.944Z,2.73
2018-09-11T16:11:30.996Z,2.90
2018-09-11T16:13:33.074Z,2.50
2018-09-11T16:15:35.154Z,3.43
2018-09-11T16:17:37.239Z,2.50
2018-09-11T16:19:39.312Z,2.83
2018-09-11T16:21:41.366Z,3.03
2018-09-11T16:23:43.415Z,2.57
2018-09-11T16:25:45.592Z,2.50
2018-09-11T16:27:47.710Z,3.67
2018-09-11T16:29:49.795Z,2.73
2018-09-11T16:31:51.963Z,3.10
2018-09-11T16:33:54.087Z,2.60
2018-09-11T16:35:56.173Z,3.00
2018-09-11T16:37:58.240Z,3.10
2018-09-11T16:40:00.339Z,3.00
2018-09-11T16:42:02.333Z,3.30
2018-09-11T16:44:04.381Z,2.60
2018-09-11T16:46:06.449Z,3.10
2018-09-11T16:48:08.535Z,2.30
2018-09-11T16:50:10.620Z,2.63
2018-09-11T16:52:12.747Z,3.20
2018-09-11T16:54:14.853Z,3.20
2018-09-11T16:56:16.915Z,3.10
2018-09-11T16:58:18.968Z,3.20
2018-09-11T17:00:21.014Z,3.07
2018-09-11T17:02:23.126Z,3.20
2018-09-11T17:04:25.187Z,3.40
2018-09-11T17:06:27.262Z,3.77
2018-09-11T17:08:29.311Z,3.47
2018-09-11T17:10:31.338Z,3.47
2018-09-11T17:12:33.437Z,3.70
2018-09-11T17:14:35.552Z,2.97
2018-09-11T17:16:37.613Z,3.40
2018-09-11T17:18:39.712Z,2.80
2018-09-11T17:20:41.838Z,3.00
2018-09-11T17:22:44.183Z,3.60
2018-09-11T17:24:46.268Z,3.30
2018-09-11T17:26:48.336Z,2.97
2018-09-11T17:28:50.481Z,2.83
2018-09-11T17:30:52.542Z,3.60
2018-09-11T17:32:54.587Z,3.20
2018-09-11T17:34:56.647Z,3.13
2018-09-11T17:36:58.797Z,3.37
2018-09-11T17:39:00.869Z,3.93
2018-09-11T17:41:02.958Z,3.43
2018-09-11T17:43:05.014Z,3.40
2018-09-11T17:45:07.097Z,2.90
2018-09-11T17:47:09.181Z,3.60
2018-09-11T17:49:11.269Z,3.50
2018-09-11T17:51:13.301Z,3.23
2018-09-11T17:53:15.466Z,3.00
2018-09-11T17:55:17.566Z,3.17
2018-09-11T17:57:19.561Z,3.10
2018-09-11T17:59:21.637Z,4.00
2018-09-11T18:01:23.697Z,3.43
2018-09-11T18:03:25.765Z,2.97
2018-09-11T18:05:27.852Z,3.07
2018-09-11T18:07:29.886Z,3.47
2018-09-11T18:09:31.960Z,3.40
2018-09-11T18:11:34.030Z,3.30
2018-09-11T18:13:36.090Z,3.90
2018-09-11T18:15:38.180Z,3.60
2018-09-11T18:17:40.241Z,3.30
2018-09-11T18:19:42.293Z,3.40
2018-09-11T18:21:44.356Z,3.30
2018-09-11T18:23:46.450Z,3.30
2018-09-11T18:25:48.618Z,4.50
2018-09-11T18:27:50.680Z,3.77
2018-09-11T18:29:52.768Z,4.10
2018-09-11T18:31:54.987Z,3.40
2018-09-11T18:33:57.063Z,3.80
2018-09-11T18:35:59.272Z,4.07
2018-09-11T18:38:01.357Z,3.90
2018-09-11T18:40:03.409Z,4.60
2018-09-11T18:42:05.509Z,3.90
2018-09-11T18:44:07.673Z,3.97
2018-09-11T18:46:09.730Z,3.43
2018-09-11T18:48:11.797Z,3.33
2018-09-11T18:50:13.893Z,4.23
2018-09-11T18:52:15.972Z,3.97
2018-09-11T18:54:18.106Z,4.47
2018-09-11T18:56:20.335Z,4.23
2018-09-11T18:58:22.718Z,3.70
2018-09-11T19:00:27.545Z,3.33
2018-09-11T19:02:29.626Z,3.50
2018-09-11T19:04:32.045Z,3.63
2018-09-11T19:06:34.401Z,3.57
2018-09-11T19:08:36.687Z,4.40
2018-09-11T19:10:38.772Z,3.60
2018-09-11T19:12:40.939Z,3.73
2018-09-11T19:14:42.984Z,4.03
2018-09-11T19:16:45.061Z,3.10
2018-09-11T19:18:47.182Z,3.23
2018-09-11T19:20:49.293Z,3.50
2018-09-11T19:22:51.396Z,3.70
2018-09-11T19:24:54.201Z,3.80
2018-09-11T19:26:56.580Z,3.57
2018-09-11T19:28:58.633Z,3.90
2018-09-11T19:31:00.742Z,3.60
2018-09-11T19:33:02.860Z,3.70
2018-09-11T19:35:05.186Z,3.47
2018-09-11T19:37:07.336Z,3.30
2018-09-11T19:39:09.602Z,3.40
2018-09-11T19:41:11.744Z,3.10
2018-09-11T19:43:13.861Z,3.47
2018-09-11T19:45:15.928Z,3.70
2018-09-11T19:47:17.986Z,3.40
2018-09-11T19:49:20.093Z,3.40
2018-09-11T19:51:22.152Z,3.20
2018-09-11T19:53:24.242Z,4.20
2018-09-11T19:55:26.293Z,4.07
2018-09-11T19:57:28.396Z,3.50
2018-09-11T19:59:30.492Z,3.70
2018-09-11T20:01:32.589Z,3.90
2018-09-11T20:03:34.645Z,3.90
2018-09-11T20:05:36.700Z,4.23
2018-09-11T20:07:38.809Z,3.77
2018-09-11T20:09:40.887Z,4.43
2018-09-11T20:11:42.945Z,4.57
2018-09-11T20:13:45.011Z,4.17
2018-09-11T20:15:47.096Z,4.13
2018-09-11T20:17:49.201Z,3.77
2018-09-11T20:19:51.304Z,3.03
2018-09-11T20:21:53.377Z,4.00
2018-09-11T20:23:55.433Z,4.07
2018-09-11T20:25:57.523Z,3.47
2018-09-11T20:27:59.546Z,3.90
2018-09-11T20:30:01.889Z,3.33
2018-09-11T20:32:04.198Z,3.40
2018-09-11T20:34:06.382Z,3.83
2018-09-11T20:36:08.689Z,5.43
2018-09-11T20:38:10.962Z,4.40
2018-09-11T20:40:13.271Z,3.77
2018-09-11T20:42:15.525Z,3.87
2018-09-11T20:44:17.743Z,4.83
2018-09-11T20:46:20.014Z,4.07
2018-09-11T20:48:22.385Z,3.53
2018-09-11T20:50:24.567Z,4.20
2018-09-11T20:52:26.826Z,3.67
2018-09-11T20:54:29.030Z,4.07
2018-09-11T20:56:31.245Z,4.57
2018-09-11T20:58:33.573Z,4.70
2018-09-11T21:00:35.866Z,3.97
2018-09-11T21:02:38.176Z,3.40
2018-09-11T21:04:40.455Z,3.63
2018-09-11T21:06:42.740Z,3.57
2018-09-11T21:08:45.075Z,3.53
2018-09-11T21:10:47.408Z,3.60
2018-09-11T21:12:49.711Z,3.80
2018-09-11T21:14:51.982Z,3.70
2018-09-11T21:16:54.272Z,3.30
2018-09-11T21:18:56.516Z,4.07
2018-09-11T21:20:58.785Z,3.27
2018-09-11T21:23:01.138Z,4.10
2018-09-11T21:25:03.366Z,3.70
2018-09-11T21:27:05.725Z,3.50
2018-09-11T21:29:08.006Z,3.47
2018-09-11T21:31:10.264Z,3.67
2018-09-11T21:33:12.589Z,4.03
2018-09-11T21:35:14.867Z,3.73
2018-09-11T21:37:17.183Z,3.80
2018-09-11T21:39:19.503Z,4.00
2018-09-11T21:41:21.706Z,3.23
2018-09-11T21:43:23.973Z,3.47
2018-09-11T21:45:26.213Z,3.93
2018-09-11T21:47:28.508Z,3.70
2018-09-11T21:49:30.905Z,3.93
2018-09-11T21:51:33.279Z,4.23
2018-09-11T21:53:35.618Z,3.63
2018-09-11T21:55:37.946Z,3.73
2018-09-11T21:57:40.643Z,3.90
2018-09-11T21:59:43.023Z,4.37
2018-09-11T22:01:52.128Z,3.70
2018-09-11T22:03:54.405Z,3.97
2018-09-11T22:05:56.875Z,3.50
2018-09-11T22:07:59.171Z,4.07
2018-09-11T22:10:01.475Z,3.70
2018-09-11T22:12:04.026Z,3.60
2018-09-11T22:14:06.418Z,4.10
2018-09-11T22:16:08.773Z,3.27
2018-09-11T22:18:11.128Z,4.33
2018-09-11T22:20:13.508Z,3.33
2018-09-11T22:22:15.969Z,3.80
2018-09-11T22:24:18.251Z,3.50
2018-09-11T22:26:20.530Z,3.50
2018-09-11T22:28:22.930Z,4.20
2018-09-11T22:30:25.208Z,4.33
2018-09-11T22:32:27.503Z,4.33
2018-09-11T22:34:29.877Z,3.60
2018-09-11T22:36:32.162Z,4.40
2018-09-11T22:38:34.467Z,3.87
2018-09-11T22:40:36.777Z,4.07
2018-09-11T22:42:39.259Z,4.17
2018-09-11T22:44:41.746Z,3.87
2018-09-11T22:46:44.127Z,4.70
2018-09-11T22:48:46.399Z,4.30
2018-09-11T22:50:48.782Z,4.40
2018-09-11T22:52:54.673Z,4.83
2018-09-11T22:54:57.098Z,4.30
2018-09-11T22:56:59.378Z,4.10
2018-09-11T22:59:01.641Z,4.10
2018-09-11T23:01:03.935Z,3.83
2018-09-11T23:03:06.236Z,3.33
2018-09-11T23:05:08.616Z,4.17
2018-09-11T23:07:10.919Z,4.60
2018-09-11T23:09:13.186Z,3.67
2018-09-11T23:11:15.499Z,4.00
2018-09-11T23:13:17.771Z,4.43
2018-09-11T23:15:20.105Z,4.00
2018-09-11T23:17:22.432Z,4.50
2018-09-11T23:19:24.787Z,3.90
2018-09-11T23:21:27.274Z,3.47
2018-09-11T23:23:29.481Z,4.10
2018-09-11T23:25:31.727Z,3.90
2018-09-11T23:27:34.074Z,3.60
2018-09-11T23:29:36.431Z,4.23
2018-09-11T23:31:38.716Z,4.37
2018-09-11T23:33:40.973Z,4.00
2018-09-11T23:35:43.259Z,3.97
2018-09-11T23:37:45.588Z,4.10
2018-09-11T23:39:47.972Z,4.20
2018-09-11T23:41:50.325Z,4.47
2018-09-11T23:43:52.606Z,3.63
2018-09-11T23:45:54.796Z,4.23
2018-09-11T23:47:57.060Z,3.90
2018-09-11T23:49:59.419Z,4.20
2018-09-11T23:52:01.802Z,4.13
2018-09-11T23:54:04.025Z,4.07
2018-09-11T23:56:06.193Z,3.80
2018-09-11T23:58:08.536Z,3.50
